sensor_id;sensor_type;location;lat;lon;timestamp;pressure;altitude;pressure_sealevel;temperature;humidity
50977;BME280;36992;48.200;12.418;2023-09-19T00:01:29;96424.53;;;20.93;55.23
50977;BME280;36992;48.200;12.418;2023-09-19T00:03:58;96419.06;;;20.93;55.44
50977;BME280;36992;48.200;12.418;2023-09-19T00:06:25;96426.44;;;20.88;55.75
50977;BME280;36992;48.200;12.418;2023-09-19T00:08:57;96426.00;;;20.86;55.45
50977;BME280;36992;48.200;12.418;2023-09-19T00:11:24;96425.13;;;20.82;55.45
50977;BME280;36992;48.200;12.418;2023-09-19T00:13:52;96439.56;;;20.79;55.54
50977;BME280;36992;48.200;12.418;2023-09-19T00:16:18;96430.94;;;20.77;55.60
50977;BME280;36992;48.200;12.418;2023-09-19T00:18:45;96429.28;;;20.72;55.32
50977;BME280;36992;48.200;12.418;2023-09-19T00:21:13;96423.03;;;20.72;55.34
50977;BME280;36992;48.200;12.418;2023-09-19T00:23:40;96419.44;;;20.68;55.93
50977;BME280;36992;48.200;12.418;2023-09-19T00:26:07;96414.31;;;20.66;55.55
50977;BME280;36992;48.200;12.418;2023-09-19T00:28:33;96415.47;;;20.65;55.75
50977;BME280;36992;48.200;12.418;2023-09-19T00:31:00;96406.50;;;20.65;55.55
50977;BME280;36992;48.200;12.418;2023-09-19T00:33:28;96407.25;;;20.65;55.93
50977;BME280;36992;48.200;12.418;2023-09-19T00:35:56;96413.94;;;20.68;56.04
50977;BME280;36992;48.200;12.418;2023-09-19T00:38:25;96417.09;;;20.70;55.90
50977;BME280;36992;48.200;12.418;2023-09-19T00:40:53;96418.28;;;20.69;55.76
50977;BME280;36992;48.200;12.418;2023-09-19T00:43:20;96415.97;;;20.71;55.76
50977;BME280;36992;48.200;12.418;2023-09-19T00:45:50;96410.13;;;20.72;55.53
50977;BME280;36992;48.200;12.418;2023-09-19T00:48:18;96415.16;;;20.70;55.89
50977;BME280;36992;48.200;12.418;2023-09-19T00:50:46;96417.56;;;20.72;56.35
50977;BME280;36992;48.200;12.418;2023-09-19T00:53:15;96419.47;;;20.71;55.71
50977;BME280;36992;48.200;12.418;2023-09-19T00:55:45;96424.59;;;20.73;55.73
50977;BME280;36992;48.200;12.418;2023-09-19T00:58:12;96420.59;;;20.67;55.37
50977;BME280;36992;48.200;12.418;2023-09-19T01:00:40;96424.91;;;20.68;55.44
50977;BME280;36992;48.200;12.418;2023-09-19T01:03:10;96430.72;;;20.66;55.63
50977;BME280;36992;48.200;12.418;2023-09-19T01:05:38;96426.78;;;20.63;55.55
50977;BME280;36992;48.200;12.418;2023-09-19T01:08:05;96433.78;;;20.61;55.64
50977;BME280;36992;48.200;12.418;2023-09-19T01:10:33;96442.38;;;20.59;55.76
50977;BME280;36992;48.200;12.418;2023-09-19T01:13:05;96444.72;;;20.61;55.70
50977;BME280;36992;48.200;12.418;2023-09-19T01:15:42;96434.16;;;20.59;55.65
50977;BME280;36992;48.200;12.418;2023-09-19T01:18:21;96449.41;;;20.60;55.55
50977;BME280;36992;48.200;12.418;2023-09-19T01:20:57;96444.28;;;20.59;55.65
50977;BME280;36992;48.200;12.418;2023-09-19T01:23:42;96449.00;;;20.58;55.60
50977;BME280;36992;48.200;12.418;2023-09-19T01:26:30;96453.31;;;20.59;55.28
50977;BME280;36992;48.200;12.418;2023-09-19T01:29:23;96458.78;;;20.59;55.50
50977;BME280;36992;48.200;12.418;2023-09-19T01:31:59;96452.03;;;20.53;55.99
50977;BME280;36992;48.200;12.418;2023-09-19T01:34:43;96459.50;;;20.56;55.72
50977;BME280;36992;48.200;12.418;2023-09-19T01:37:10;96457.81;;;20.48;56.04
50977;BME280;36992;48.200;12.418;2023-09-19T01:39:37;96463.28;;;20.48;55.89
50977;BME280;36992;48.200;12.418;2023-09-19T01:42:09;96460.94;;;20.50;55.81
50977;BME280;36992;48.200;12.418;2023-09-19T01:44:47;96464.84;;;20.49;55.48
50977;BME280;36992;48.200;12.418;2023-09-19T01:47:23;96468.75;;;20.48;55.66
50977;BME280;36992;48.200;12.418;2023-09-19T01:49:56;96467.16;;;20.47;55.93
50977;BME280;36992;48.200;12.418;2023-09-19T01:52:28;96468.69;;;20.44;56.02
50977;BME280;36992;48.200;12.418;2023-09-19T01:55:02;96460.81;;;20.43;56.19
50977;BME280;36992;48.200;12.418;2023-09-19T01:57:35;96463.91;;;20.41;55.93
50977;BME280;36992;48.200;12.418;2023-09-19T02:00:10;96468.63;;;20.41;55.98
50977;BME280;36992;48.200;12.418;2023-09-19T02:02:40;96465.88;;;20.41;56.32
50977;BME280;36992;48.200;12.418;2023-09-19T02:05:09;96459.97;;;20.39;56.61
50977;BME280;36992;48.200;12.418;2023-09-19T02:07:38;96458.44;;;20.41;56.33
50977;BME280;36992;48.200;12.418;2023-09-19T02:10:06;96456.09;;;20.40;56.25
50977;BME280;36992;48.200;12.418;2023-09-19T02:12:35;96468.63;;;20.41;56.11
50977;BME280;36992;48.200;12.418;2023-09-19T02:15:02;96466.28;;;20.43;56.30
50977;BME280;36992;48.200;12.418;2023-09-19T02:17:32;96464.38;;;20.43;56.29
50977;BME280;36992;48.200;12.418;2023-09-19T02:20:00;96471.06;;;20.46;56.17
50977;BME280;36992;48.200;12.418;2023-09-19T02:22:28;96460.13;;;20.46;56.00
50977;BME280;36992;48.200;12.418;2023-09-19T02:24:55;96462.03;;;20.45;56.00
50977;BME280;36992;48.200;12.418;2023-09-19T02:27:23;96465.59;;;20.46;55.73
50977;BME280;36992;48.200;12.418;2023-09-19T02:29:50;96474.94;;;20.45;55.93
50977;BME280;36992;48.200;12.418;2023-09-19T02:32:17;96479.97;;;20.43;56.15
50977;BME280;36992;48.200;12.418;2023-09-19T02:34:44;96477.59;;;20.41;55.89
50977;BME280;36992;48.200;12.418;2023-09-19T02:37:12;96475.66;;;20.42;55.91
50977;BME280;36992;48.200;12.418;2023-09-19T02:39:41;96480.28;;;20.38;56.14
50977;BME280;36992;48.200;12.418;2023-09-19T02:42:08;96486.47;;;20.34;56.40
50977;BME280;36992;48.200;12.418;2023-09-19T02:44:34;96482.16;;;20.33;56.17
50977;BME280;36992;48.200;12.418;2023-09-19T02:47:01;96496.97;;;20.32;56.14
50977;BME280;36992;48.200;12.418;2023-09-19T02:49:27;96482.88;;;20.30;56.15
50977;BME280;36992;48.200;12.418;2023-09-19T02:51:54;96484.03;;;20.29;56.38
50977;BME280;36992;48.200;12.418;2023-09-19T02:54:22;96494.97;;;20.29;56.33
50977;BME280;36992;48.200;12.418;2023-09-19T02:56:48;96483.22;;;20.29;56.26
50977;BME280;36992;48.200;12.418;2023-09-19T02:59:15;96478.16;;;20.27;56.39
50977;BME280;36992;48.200;12.418;2023-09-19T03:01:43;96484.38;;;20.28;56.43
50977;BME280;36992;48.200;12.418;2023-09-19T03:04:11;96483.16;;;20.25;56.41
50977;BME280;36992;48.200;12.418;2023-09-19T03:06:38;96483.16;;;20.25;56.53
50977;BME280;36992;48.200;12.418;2023-09-19T03:09:05;96481.59;;;20.24;56.16
50977;BME280;36992;48.200;12.418;2023-09-19T03:11:39;96484.75;;;20.26;55.89
50977;BME280;36992;48.200;12.418;2023-09-19T03:14:07;96493.69;;;20.23;56.34
50977;BME280;36992;48.200;12.418;2023-09-19T03:16:35;96480.38;;;20.21;55.94
50977;BME280;36992;48.200;12.418;2023-09-19T03:19:02;96480.38;;;20.21;56.30
50977;BME280;36992;48.200;12.418;2023-09-19T03:21:29;96487.00;;;20.20;56.01
50977;BME280;36992;48.200;12.418;2023-09-19T03:23:56;96493.25;;;20.21;56.26
50977;BME280;36992;48.200;12.418;2023-09-19T03:26:22;96487.00;;;20.20;56.50
50977;BME280;36992;48.200;12.418;2023-09-19T03:28:53;96493.25;;;20.21;56.24
50977;BME280;36992;48.200;12.418;2023-09-19T03:31:19;96496.00;;;20.21;56.08
50977;BME280;36992;48.200;12.418;2023-09-19T03:33:46;96483.03;;;20.18;56.07
50977;BME280;36992;48.200;12.418;2023-09-19T03:36:12;96490.06;;;20.19;56.30
50977;BME280;36992;48.200;12.418;2023-09-19T03:38:39;96493.97;;;20.18;55.85
50977;BME280;36992;48.200;12.418;2023-09-19T03:41:06;96488.09;;;20.16;56.28
50977;BME280;36992;48.200;12.418;2023-09-19T03:43:32;96488.44;;;20.14;56.05
50977;BME280;36992;48.200;12.418;2023-09-19T03:46:02;96492.38;;;20.17;55.89
50977;BME280;36992;48.200;12.418;2023-09-19T03:48:30;96492.69;;;20.12;56.03
50977;BME280;36992;48.200;12.418;2023-09-19T03:50:56;96490.69;;;20.08;55.70
50977;BME280;36992;48.200;12.418;2023-09-19T03:53:23;96492.59;;;20.08;56.49
50977;BME280;36992;48.200;12.418;2023-09-19T03:55:49;96501.63;;;20.08;56.32
50977;BME280;36992;48.200;12.418;2023-09-19T03:58:16;96507.09;;;20.08;56.04
50977;BME280;36992;48.200;12.418;2023-09-19T04:00:42;96502.38;;;20.09;56.12
50977;BME280;36992;48.200;12.418;2023-09-19T04:03:10;96500.88;;;20.12;55.98
50977;BME280;36992;48.200;12.418;2023-09-19T04:05:44;96498.16;;;20.12;56.54
50977;BME280;36992;48.200;12.418;2023-09-19T04:08:11;96498.16;;;20.12;56.12
50977;BME280;36992;48.200;12.418;2023-09-19T04:10:38;96498.16;;;20.12;55.84
50977;BME280;36992;48.200;12.418;2023-09-19T04:13:04;96500.06;;;20.11;55.83
50977;BME280;36992;48.200;12.418;2023-09-19T04:15:32;96498.88;;;20.08;55.99
50977;BME280;36992;48.200;12.418;2023-09-19T04:17:58;96510.94;;;20.07;56.23
50977;BME280;36992;48.200;12.418;2023-09-19T04:20:26;96503.91;;;20.06;56.12
50977;BME280;36992;48.200;12.418;2023-09-19T04:22:53;96514.41;;;20.04;55.86
50977;BME280;36992;48.200;12.418;2023-09-19T04:25:19;96514.00;;;20.02;56.11
50977;BME280;36992;48.200;12.418;2023-09-19T04:27:46;96516.28;;;20.00;56.42
50977;BME280;36992;48.200;12.418;2023-09-19T04:30:13;96526.03;;;20.01;56.10
50977;BME280;36992;48.200;12.418;2023-09-19T04:32:40;96532.66;;;20.00;56.01
50977;BME280;36992;48.200;12.418;2023-09-19T04:35:08;96524.47;;;20.00;56.02
50977;BME280;36992;48.200;12.418;2023-09-19T04:37:38;96528.84;;;20.05;55.97
50977;BME280;36992;48.200;12.418;2023-09-19T04:40:07;96536.28;;;20.04;55.86
50977;BME280;36992;48.200;12.418;2023-09-19T04:45:04;96540.16;;;20.03;56.20
50977;BME280;36992;48.200;12.418;2023-09-19T04:47:31;96545.25;;;20.05;56.25
50977;BME280;36992;48.200;12.418;2023-09-19T04:49:57;96545.25;;;20.05;55.98
50977;BME280;36992;48.200;12.418;2023-09-19T04:52:24;96546.47;;;20.07;55.73
50977;BME280;36992;48.200;12.418;2023-09-19T04:54:52;96547.72;;;20.10;55.46
50977;BME280;36992;48.200;12.418;2023-09-19T04:57:18;96552.41;;;20.10;55.62
50977;BME280;36992;48.200;12.418;2023-09-19T04:59:45;96556.28;;;20.08;55.49
50977;BME280;36992;48.200;12.418;2023-09-19T05:02:11;96551.25;;;20.11;55.52
50977;BME280;36992;48.200;12.418;2023-09-19T05:04:38;96562.59;;;20.13;55.46
50977;BME280;36992;48.200;12.418;2023-09-19T05:07:05;96562.59;;;20.13;55.74
50977;BME280;36992;48.200;12.418;2023-09-19T05:09:31;96566.16;;;20.13;56.02
50977;BME280;36992;48.200;12.418;2023-09-19T05:12:01;96573.19;;;20.14;55.65
50977;BME280;36992;48.200;12.418;2023-09-19T05:14:27;96580.59;;;20.14;55.75
50977;BME280;36992;48.200;12.418;2023-09-19T05:16:53;96581.75;;;20.13;55.65
50977;BME280;36992;48.200;12.418;2023-09-19T05:19:20;96589.19;;;20.12;55.81
50977;BME280;36992;48.200;12.418;2023-09-19T05:21:46;96586.78;;;20.11;55.68
50977;BME280;36992;48.200;12.418;2023-09-19T05:24:14;96582.47;;;20.10;56.13
50977;BME280;36992;48.200;12.418;2023-09-19T05:26:42;96594.56;;;20.08;56.17
50977;BME280;36992;48.200;12.418;2023-09-19T05:29:10;96598.88;;;20.10;56.22
50977;BME280;36992;48.200;12.418;2023-09-19T05:31:37;96599.59;;;20.06;55.81
50977;BME280;36992;48.200;12.418;2023-09-19T05:34:06;96595.69;;;20.07;56.38
50977;BME280;36992;48.200;12.418;2023-09-19T05:36:32;96603.47;;;20.05;56.12
50977;BME280;36992;48.200;12.418;2023-09-19T05:38:59;96607.38;;;20.04;56.23
50977;BME280;36992;48.200;12.418;2023-09-19T05:43:51;96604.19;;;20.02;56.57
50977;BME280;36992;48.200;12.418;2023-09-19T05:46:19;96602.66;;;20.05;55.93
50977;BME280;36992;48.200;12.418;2023-09-19T05:48:45;96604.19;;;20.02;56.45
50977;BME280;36992;48.200;12.418;2023-09-19T05:51:15;96606.94;;;20.02;56.10
50977;BME280;36992;48.200;12.418;2023-09-19T05:56:09;96619.00;;;20.01;56.43
50977;BME280;36992;48.200;12.418;2023-09-19T05:58:36;96619.00;;;20.01;56.62
50977;BME280;36992;48.200;12.418;2023-09-19T06:01:03;96621.72;;;20.01;56.45
50977;BME280;36992;48.200;12.418;2023-09-19T06:03:31;96621.72;;;20.01;56.33
50977;BME280;36992;48.200;12.418;2023-09-19T06:05:58;96627.56;;;20.00;56.58
50977;BME280;36992;48.200;12.418;2023-09-19T06:08:24;96618.56;;;19.99;56.83
50977;BME280;36992;48.200;12.418;2023-09-19T06:10:51;96618.56;;;19.99;56.35
50977;BME280;36992;48.200;12.418;2023-09-19T06:13:17;96631.53;;;20.02;56.68
50977;BME280;36992;48.200;12.418;2023-09-19T06:15:45;96626.06;;;20.02;56.39
50977;BME280;36992;48.200;12.418;2023-09-19T06:18:12;96632.03;;;20.08;56.57
50977;BME280;36992;48.200;12.418;2023-09-19T06:20:46;96626.66;;;20.12;56.66
50977;BME280;36992;48.200;12.418;2023-09-19T06:23:12;96633.69;;;20.13;56.54
50977;BME280;36992;48.200;12.418;2023-09-19T06:25:39;96642.34;;;20.15;56.58
50977;BME280;36992;48.200;12.418;2023-09-19T06:28:06;96639.25;;;20.16;56.57
50977;BME280;36992;48.200;12.418;2023-09-19T06:30:33;96639.69;;;20.18;56.34
50977;BME280;36992;48.200;12.418;2023-09-19T06:33:00;96640.47;;;20.19;56.68
50977;BME280;36992;48.200;12.418;2023-09-19T06:35:32;96648.41;;;20.24;56.40
50977;BME280;36992;48.200;12.418;2023-09-19T06:38:02;96648.84;;;20.26;56.46
50977;BME280;36992;48.200;12.418;2023-09-19T06:40:29;96651.56;;;20.26;56.35
50977;BME280;36992;48.200;12.418;2023-09-19T06:42:56;96653.19;;;20.27;56.46
50977;BME280;36992;48.200;12.418;2023-09-19T06:45:23;96655.19;;;20.30;56.13
50977;BME280;36992;48.200;12.418;2023-09-19T06:47:52;96649.00;;;20.33;56.21
50977;BME280;36992;48.200;12.418;2023-09-19T06:50:20;96654.91;;;20.35;56.29
50977;BME280;36992;48.200;12.418;2023-09-19T06:52:48;96656.13;;;20.38;56.25
50977;BME280;36992;48.200;12.418;2023-09-19T06:55:18;96656.91;;;20.39;56.00
50977;BME280;36992;48.200;12.418;2023-09-19T06:57:45;96657.38;;;20.41;55.54
50977;BME280;36992;48.200;12.418;2023-09-19T07:00:12;96656.22;;;20.42;55.73
50977;BME280;36992;48.200;12.418;2023-09-19T07:02:43;96656.97;;;20.42;55.43
50977;BME280;36992;48.200;12.418;2023-09-19T07:05:10;96661.75;;;20.45;55.44
50977;BME280;36992;48.200;12.418;2023-09-19T07:07:37;96658.66;;;20.47;55.60
50977;BME280;36992;48.200;12.418;2023-09-19T07:10:05;96661.81;;;20.49;55.57
50977;BME280;36992;48.200;12.418;2023-09-19T07:12:33;96658.75;;;20.51;55.41
50977;BME280;36992;48.200;12.418;2023-09-19T07:14:59;96668.88;;;20.50;55.48
50977;BME280;36992;48.200;12.418;2023-09-19T07:17:26;96669.34;;;20.52;55.38
50977;BME280;36992;48.200;12.418;2023-09-19T07:19:53;96662.69;;;20.53;55.31
50977;BME280;36992;48.200;12.418;2023-09-19T07:22:19;96669.75;;;20.54;55.44
50977;BME280;36992;48.200;12.418;2023-09-19T07:24:46;96676.81;;;20.55;54.74
50977;BME280;36992;48.200;12.418;2023-09-19T07:27:14;96674.50;;;20.57;55.26
50977;BME280;36992;48.200;12.418;2023-09-19T07:29:42;96673.38;;;20.58;54.88
50977;BME280;36992;48.200;12.418;2023-09-19T07:32:10;96675.72;;;20.60;54.64
50977;BME280;36992;48.200;12.418;2023-09-19T07:34:37;96671.47;;;20.62;55.31
50977;BME280;36992;48.200;12.418;2023-09-19T07:37:04;96682.50;;;20.66;55.09
50977;BME280;36992;48.200;12.418;2023-09-19T07:39:30;96691.16;;;20.68;54.59
50977;BME280;36992;48.200;12.418;2023-09-19T07:41:57;96687.34;;;20.73;54.92
50977;BME280;36992;48.200;12.418;2023-09-19T07:44:24;96685.47;;;20.77;54.68
50977;BME280;36992;48.200;12.418;2023-09-19T07:46:52;96689.06;;;20.81;53.92
50977;BME280;36992;48.200;12.418;2023-09-19T07:49:20;96689.59;;;20.87;54.28
50977;BME280;36992;48.200;12.418;2023-09-19T07:51:46;96687.34;;;20.93;54.30
50977;BME280;36992;48.200;12.418;2023-09-19T07:54:13;96693.25;;;20.95;52.51
50977;BME280;36992;48.200;12.418;2023-09-19T07:56:39;96697.28;;;21.01;53.04
50977;BME280;36992;48.200;12.418;2023-09-19T07:59:06;96697.00;;;21.06;52.84
50977;BME280;36992;48.200;12.418;2023-09-19T08:01:33;96696.72;;;21.11;52.29
50977;BME280;36992;48.200;12.418;2023-09-19T08:04:02;96700.31;;;21.15;51.80
50977;BME280;36992;48.200;12.418;2023-09-19T08:06:28;96703.84;;;21.16;52.29
50977;BME280;36992;48.200;12.418;2023-09-19T08:08:55;96705.50;;;21.21;52.94
50977;BME280;36992;48.200;12.418;2023-09-19T08:11:23;96702.03;;;21.24;52.49
50977;BME280;36992;48.200;12.418;2023-09-19T08:13:50;96703.25;;;21.26;52.06
50977;BME280;36992;48.200;12.418;2023-09-19T08:16:17;96707.22;;;21.29;51.62
50977;BME280;36992;48.200;12.418;2023-09-19T08:18:46;96703.38;;;21.34;52.19
50977;BME280;36992;48.200;12.418;2023-09-19T08:21:14;96703.03;;;21.35;52.32
50977;BME280;36992;48.200;12.418;2023-09-19T08:23:41;96701.13;;;21.39;52.00
50977;BME280;36992;48.200;12.418;2023-09-19T08:26:08;96706.69;;;21.43;52.24
50977;BME280;36992;48.200;12.418;2023-09-19T08:28:35;96706.38;;;21.48;52.59
50977;BME280;36992;48.200;12.418;2023-09-19T08:31:02;96709.16;;;21.52;49.75
50977;BME280;36992;48.200;12.418;2023-09-19T08:33:31;96705.28;;;21.53;50.48
50977;BME280;36992;48.200;12.418;2023-09-19T08:35:58;96715.94;;;21.58;50.14
50977;BME280;36992;48.200;12.418;2023-09-19T08:38:26;96714.91;;;21.66;51.23
50977;BME280;36992;48.200;12.418;2023-09-19T08:40:57;96720.13;;;21.72;51.46
50977;BME280;36992;48.200;12.418;2023-09-19T08:43:23;96717.00;;;21.73;50.71
50977;BME280;36992;48.200;12.418;2023-09-19T08:45:51;96715.94;;;21.78;50.23
50977;BME280;36992;48.200;12.418;2023-09-19T08:48:23;96699.59;;;21.85;50.33
50977;BME280;36992;48.200;12.418;2023-09-19T08:50:52;96705.13;;;21.89;50.81
50977;BME280;36992;48.200;12.418;2023-09-19T08:53:29;96714.63;;;21.95;50.05
50977;BME280;36992;48.200;12.418;2023-09-19T08:55:59;96714.69;;;21.99;50.20
50977;BME280;36992;48.200;12.418;2023-09-19T08:58:31;96714.38;;;22.04;48.82
50977;BME280;36992;48.200;12.418;2023-09-19T09:01:00;96723.44;;;22.08;48.85
50977;BME280;36992;48.200;12.418;2023-09-19T09:03:32;96721.97;;;22.14;49.43
50977;BME280;36992;48.200;12.418;2023-09-19T09:05:59;96713.38;;;22.16;49.63
50977;BME280;36992;48.200;12.418;2023-09-19T09:08:28;96716.59;;;22.21;49.18
50977;BME280;36992;48.200;12.418;2023-09-19T09:10:56;96714.69;;;22.26;49.68
50977;BME280;36992;48.200;12.418;2023-09-19T09:13:24;96710.41;;;22.28;49.45
50977;BME280;36992;48.200;12.418;2023-09-19T09:15:51;96722.59;;;22.31;49.05
50977;BME280;36992;48.200;12.418;2023-09-19T09:18:19;96721.13;;;22.37;48.81
50977;BME280;36992;48.200;12.418;2023-09-19T09:20:46;96723.16;;;22.40;48.53
50977;BME280;36992;48.200;12.418;2023-09-19T09:23:13;96728.69;;;22.44;47.89
50977;BME280;36992;48.200;12.418;2023-09-19T09:25:52;96727.19;;;22.50;48.17
50977;BME280;36992;48.200;12.418;2023-09-19T09:28:22;96723.66;;;22.49;47.41
50977;BME280;36992;48.200;12.418;2023-09-19T09:30:50;96737.75;;;22.48;47.01
50977;BME280;36992;48.200;12.418;2023-09-19T09:33:17;96738.94;;;22.50;47.18
50977;BME280;36992;48.200;12.418;2023-09-19T09:35:48;96733.53;;;22.54;47.75
50977;BME280;36992;48.200;12.418;2023-09-19T09:38:17;96729.59;;;22.52;47.83
50977;BME280;36992;48.200;12.418;2023-09-19T09:40:48;96726.09;;;22.55;48.06
50977;BME280;36992;48.200;12.418;2023-09-19T09:43:32;96735.19;;;22.59;47.65
50977;BME280;36992;48.200;12.418;2023-09-19T09:46:12;96725.78;;;22.60;47.28
50977;BME280;36992;48.200;12.418;2023-09-19T09:48:57;96720.72;;;22.62;47.19
50977;BME280;36992;48.200;12.418;2023-09-19T09:51:45;96720.41;;;22.67;46.05
50977;BME280;36992;48.200;12.418;2023-09-19T09:54:14;96712.25;;;22.74;46.86
50977;BME280;36992;48.200;12.418;2023-09-19T09:56:52;96725.31;;;22.85;46.56
50977;BME280;36992;48.200;12.418;2023-09-19T09:59:21;96714.38;;;22.88;45.51
50977;BME280;36992;48.200;12.418;2023-09-19T10:01:49;96718.34;;;22.91;45.82
50977;BME280;36992;48.200;12.418;2023-09-19T10:04:27;96723.13;;;22.98;45.06
50977;BME280;36992;48.200;12.418;2023-09-19T10:06:57;96713.28;;;22.97;44.59
50977;BME280;36992;48.200;12.418;2023-09-19T10:09:23;96717.94;;;22.93;44.65
50977;BME280;36992;48.200;12.418;2023-09-19T10:12:05;96715.28;;;22.96;45.09
50977;BME280;36992;48.200;12.418;2023-09-19T10:14:37;96721.53;;;22.97;45.58
50977;BME280;36992;48.200;12.418;2023-09-19T10:17:05;96720.69;;;22.93;44.21
50977;BME280;36992;48.200;12.418;2023-09-19T10:19:46;96719.16;;;22.95;44.95
50977;BME280;36992;48.200;12.418;2023-09-19T10:22:17;96731.63;;;22.89;44.01
50977;BME280;36992;48.200;12.418;2023-09-19T10:24:48;96722.25;;;22.90;44.79
50977;BME280;36992;48.200;12.418;2023-09-19T10:27:16;96725.00;;;22.90;44.59
50977;BME280;36992;48.200;12.418;2023-09-19T10:29:49;96722.31;;;22.94;45.63
50977;BME280;36992;48.200;12.418;2023-09-19T10:32:16;96724.59;;;22.91;45.37
50977;BME280;36992;48.200;12.418;2023-09-19T10:34:46;96724.25;;;22.93;44.87
50977;BME280;36992;48.200;12.418;2023-09-19T10:37:16;96719.16;;;22.95;45.31
50977;BME280;36992;48.200;12.418;2023-09-19T10:39:45;96722.72;;;22.96;45.93
50977;BME280;36992;48.200;12.418;2023-09-19T10:42:15;96722.34;;;22.97;45.68
50977;BME280;36992;48.200;12.418;2023-09-19T10:44:46;96716.09;;;23.00;46.51
50977;BME280;36992;48.200;12.418;2023-09-19T10:47:15;96721.63;;;23.04;45.74
50977;BME280;36992;48.200;12.418;2023-09-19T10:49:44;96724.81;;;23.06;45.69
50977;BME280;36992;48.200;12.418;2023-09-19T10:52:14;96716.28;;;23.15;45.87
50977;BME280;36992;48.200;12.418;2023-09-19T10:54:46;96714.38;;;23.23;46.36
50977;BME280;36992;48.200;12.418;2023-09-19T10:57:19;96703.44;;;23.30;46.52
50977;BME280;36992;48.200;12.418;2023-09-19T11:00:02;96713.03;;;23.40;45.94
50977;BME280;36992;48.200;12.418;2023-09-19T11:03:16;96710.41;;;23.54;46.50
50977;BME280;36992;48.200;12.418;2023-09-19T11:06:00;96712.81;;;23.60;46.02
50977;BME280;36992;48.200;12.418;2023-09-19T11:08:30;96706.16;;;23.61;45.40
50977;BME280;36992;48.200;12.418;2023-09-19T11:10:59;96705.81;;;23.66;45.67
50977;BME280;36992;48.200;12.418;2023-09-19T11:13:30;96714.13;;;23.73;45.24
50977;BME280;36992;48.200;12.418;2023-09-19T11:16:04;96717.31;;;23.82;45.54
50977;BME280;36992;48.200;12.418;2023-09-19T11:18:53;96715.81;;;23.89;45.45
50977;BME280;36992;48.200;12.418;2023-09-19T11:21:51;96716.63;;;23.93;45.41
50977;BME280;36992;48.200;12.418;2023-09-19T11:24:32;96704.84;;;23.96;45.13
50977;BME280;36992;48.200;12.418;2023-09-19T11:27:14;96696.66;;;24.00;43.74
50977;BME280;36992;48.200;12.418;2023-09-19T11:29:43;96699.78;;;23.98;43.43
50977;BME280;36992;48.200;12.418;2023-09-19T11:32:11;96696.25;;;24.01;40.46
50977;BME280;36992;48.200;12.418;2023-09-19T11:34:42;96699.06;;;24.08;39.56
50977;BME280;36992;48.200;12.418;2023-09-19T11:40:44;96712.50;;;24.17;39.40
50977;BME280;36992;48.200;12.418;2023-09-19T11:43:32;96697.63;;;24.22;40.76
50977;BME280;36992;48.200;12.418;2023-09-19T11:46:02;96715.25;;;24.17;39.32
50977;BME280;36992;48.200;12.418;2023-09-19T11:48:29;96716.84;;;24.18;39.40
50977;BME280;36992;48.200;12.418;2023-09-19T11:50:57;96710.19;;;24.23;40.96
50977;BME280;36992;48.200;12.418;2023-09-19T11:53:31;96711.81;;;24.31;42.48
50977;BME280;36992;48.200;12.418;2023-09-19T11:56:01;96725.56;;;24.31;42.99
50977;BME280;36992;48.200;12.418;2023-09-19T11:58:30;96731.88;;;24.32;43.23
50977;BME280;36992;48.200;12.418;2023-09-19T12:01:00;96740.91;;;24.29;44.28
50977;BME280;36992;48.200;12.418;2023-09-19T12:03:32;96733.41;;;24.22;44.46
50977;BME280;36992;48.200;12.418;2023-09-19T12:05:59;96747.06;;;24.11;44.58
50977;BME280;36992;48.200;12.418;2023-09-19T12:08:28;96743.00;;;24.01;45.25
50977;BME280;36992;48.200;12.418;2023-09-19T12:10:55;96747.69;;;23.93;45.85
50977;BME280;36992;48.200;12.418;2023-09-19T12:13:21;96739.78;;;23.88;45.75
50977;BME280;36992;48.200;12.418;2023-09-19T12:15:48;96746.44;;;23.83;46.09
50977;BME280;36992;48.200;12.418;2023-09-19T12:18:26;96745.25;;;23.84;45.94
50977;BME280;36992;48.200;12.418;2023-09-19T12:20:55;96739.28;;;23.79;46.15
50977;BME280;36992;48.200;12.418;2023-09-19T12:23:23;96733.38;;;23.77;45.81
50977;BME280;36992;48.200;12.418;2023-09-19T12:25:51;96738.09;;;23.76;45.72
50977;BME280;36992;48.200;12.418;2023-09-19T12:28:19;96731.00;;;23.75;45.83
50977;BME280;36992;48.200;12.418;2023-09-19T12:30:47;96731.44;;;23.77;45.46
50977;BME280;36992;48.200;12.418;2023-09-19T12:33:17;96725.97;;;23.81;45.58
50977;BME280;36992;48.200;12.418;2023-09-19T12:35:46;96723.19;;;23.77;46.00
50977;BME280;36992;48.200;12.418;2023-09-19T12:38:24;96729.50;;;23.81;45.82
50977;BME280;36992;48.200;12.418;2023-09-19T12:40:51;96735.78;;;23.78;46.26
50977;BME280;36992;48.200;12.418;2023-09-19T12:43:18;96723.19;;;23.77;45.68
50977;BME280;36992;48.200;12.418;2023-09-19T12:45:45;96727.13;;;23.80;45.72
50977;BME280;36992;48.200;12.418;2023-09-19T12:48:20;96730.72;;;23.88;45.69
50977;BME280;36992;48.200;12.418;2023-09-19T12:51:04;96729.56;;;23.89;45.02
50977;BME280;36992;48.200;12.418;2023-09-19T12:53:34;96728.75;;;23.84;45.17
50977;BME280;36992;48.200;12.418;2023-09-19T12:56:05;96720.06;;;23.82;45.62
50977;BME280;36992;48.200;12.418;2023-09-19T12:58:33;96722.44;;;23.84;44.68
50977;BME280;36992;48.200;12.418;2023-09-19T13:01:00;96722.44;;;23.84;44.71
50977;BME280;36992;48.200;12.418;2023-09-19T13:03:28;96718.16;;;23.87;45.22
50977;BME280;36992;48.200;12.418;2023-09-19T13:05:57;96720.16;;;23.90;44.60
50977;BME280;36992;48.200;12.418;2023-09-19T13:08:26;96713.88;;;23.93;45.37
50977;BME280;36992;48.200;12.418;2023-09-19T13:11:17;96720.25;;;24.04;45.73
50977;BME280;36992;48.200;12.418;2023-09-19T13:13:46;96727.28;;;23.98;44.97